createdAt,value
2022-12-14T00:01:45.139Z,16.38
2022-12-14T00:04:17.462Z,16.40
2022-12-14T00:06:44.397Z,16.90
2022-12-14T00:09:11.482Z,16.45
2022-12-14T00:11:38.391Z,15.73
2022-12-14T00:14:06.204Z,17.45
2022-12-14T00:16:35.174Z,16.52
2022-12-14T00:19:02.954Z,17.15
2022-12-14T00:21:29.862Z,17.48
2022-12-14T00:23:59.503Z,16.98
2022-12-14T00:26:31.043Z,18.17
2022-12-14T00:29:00.584Z,17.08
2022-12-14T00:31:28.124Z,16.33
2022-12-14T00:33:55.523Z,17.90
2022-12-14T00:36:22.928Z,17.48
2022-12-14T00:38:49.815Z,17.90
2022-12-14T00:41:16.712Z,18.42
2022-12-14T00:43:44.242Z,17.08
2022-12-14T00:46:11.427Z,19.02
2022-12-14T00:48:38.564Z,18.48
2022-12-14T00:51:06.040Z,16.48
2022-12-14T00:53:32.968Z,17.95
2022-12-14T00:56:08.750Z,17.80
2022-12-14T00:58:36.047Z,18.40
2022-12-14T01:01:12.343Z,17.40
2022-12-14T01:03:39.571Z,17.25
2022-12-14T01:06:06.811Z,16.48
2022-12-14T01:08:36.637Z,16.63
2022-12-14T01:11:08.609Z,17.65
2022-12-14T01:13:37.542Z,17.08
2022-12-14T01:16:11.636Z,16.35
2022-12-14T01:18:40.350Z,16.10
2022-12-14T01:21:19.490Z,16.42
2022-12-14T01:23:48.650Z,16.10
2022-12-14T01:26:17.387Z,16.58
2022-12-14T01:28:46.234Z,16.52
2022-12-14T01:31:17.259Z,16.40
2022-12-14T01:33:45.161Z,16.92
2022-12-14T01:36:19.072Z,16.98
2022-12-14T01:38:47.602Z,16.70
2022-12-14T01:41:29.962Z,16.27
2022-12-14T01:44:02.033Z,16.50
2022-12-14T01:46:34.150Z,16.77
2022-12-14T01:49:13.464Z,17.52
2022-12-14T01:51:48.754Z,17.50
2022-12-14T01:54:16.702Z,16.80
2022-12-14T01:56:45.804Z,18.08
2022-12-14T01:59:23.603Z,16.60
2022-12-14T02:01:52.290Z,17.77
2022-12-14T02:04:20.127Z,15.68
2022-12-14T02:06:49.370Z,17.65
2022-12-14T02:09:21.951Z,16.02
2022-12-14T02:11:58.682Z,16.48
2022-12-14T02:14:26.703Z,16.70
2022-12-14T02:16:56.106Z,17.05
2022-12-14T02:19:23.649Z,16.27
2022-12-14T02:22:34.536Z,16.73
2022-12-14T02:25:31.693Z,17.27
2022-12-14T02:28:53.173Z,16.30
2022-12-14T02:31:45.026Z,15.30
2022-12-14T02:34:45.520Z,16.30
2022-12-14T02:37:39.129Z,16.13
2022-12-14T02:40:34.369Z,16.08
2022-12-14T02:43:30.755Z,16.50
2022-12-14T02:46:45.068Z,16.30
2022-12-14T02:49:32.846Z,15.27
2022-12-14T02:52:29.430Z,16.52
2022-12-14T02:55:17.790Z,16.33
2022-12-14T02:58:01.418Z,15.00
2022-12-14T03:00:33.803Z,16.05
2022-12-14T03:03:01.778Z,15.13
2022-12-14T03:05:29.622Z,16.10
2022-12-14T03:08:14.548Z,17.70
2022-12-14T03:10:51.643Z,15.55
2022-12-14T03:13:37.439Z,16.23
2022-12-14T03:16:22.931Z,15.95
2022-12-14T03:19:42.700Z,15.57
2022-12-14T03:22:30.253Z,16.50
2022-12-14T03:25:27.051Z,13.98
2022-12-14T03:28:12.243Z,15.40
2022-12-14T03:31:00.319Z,16.10
2022-12-14T03:33:30.731Z,15.02
2022-12-14T03:36:16.463Z,15.40
2022-12-14T03:38:48.139Z,15.90
2022-12-14T03:41:54.866Z,14.95
2022-12-14T03:44:48.769Z,14.85
2022-12-14T03:47:33.518Z,15.38
2022-12-14T03:50:06.883Z,15.60
2022-12-14T03:52:50.198Z,15.90
2022-12-14T03:55:40.910Z,15.70
2022-12-14T03:58:27.783Z,14.52
2022-12-14T04:01:21.584Z,15.77
2022-12-14T04:04:04.043Z,16.88
2022-12-14T04:06:45.679Z,15.77
2022-12-14T04:09:52.313Z,15.60
2022-12-14T04:12:56.840Z,15.80
2022-12-14T04:15:48.981Z,14.90
2022-12-14T04:18:59.262Z,14.77
2022-12-14T04:21:36.685Z,14.50
2022-12-14T04:24:43.541Z,14.63
2022-12-14T04:27:36.607Z,14.93
2022-12-14T04:30:06.261Z,14.73
2022-12-14T04:33:26.541Z,15.75
2022-12-14T04:35:57.376Z,15.13
2022-12-14T04:38:35.212Z,15.80
2022-12-14T04:41:09.363Z,15.65
2022-12-14T04:43:41.827Z,14.77
2022-12-14T04:46:13.900Z,15.02
2022-12-14T04:48:48.233Z,15.95
2022-12-14T04:52:04.824Z,15.40
2022-12-14T04:54:53.587Z,15.43
2022-12-14T04:58:18.510Z,15.15
2022-12-14T05:01:22.648Z,14.68
2022-12-14T05:04:08.166Z,14.77
2022-12-14T05:06:44.846Z,14.63
2022-12-14T05:09:44.086Z,14.35
2022-12-14T05:12:22.930Z,14.40
2022-12-14T05:14:59.881Z,14.68
2022-12-14T05:17:27.937Z,13.90
2022-12-14T05:19:54.897Z,13.98
2022-12-14T05:22:22.227Z,13.68
2022-12-14T05:24:49.139Z,16.17
2022-12-14T05:27:16.520Z,13.57
2022-12-14T05:29:43.555Z,15.10
2022-12-14T05:32:13.508Z,15.70
2022-12-14T05:34:40.706Z,14.32
2022-12-14T05:37:09.571Z,15.20
2022-12-14T05:39:40.174Z,16.13
2022-12-14T05:42:07.274Z,15.77
2022-12-14T05:44:34.263Z,14.75
2022-12-14T05:47:01.305Z,14.90
2022-12-14T05:49:28.200Z,14.40
2022-12-14T05:51:55.409Z,14.43
2022-12-14T05:54:22.322Z,14.38
2022-12-14T05:56:49.499Z,14.52
2022-12-14T05:59:17.557Z,15.80
2022-12-14T06:01:45.637Z,15.05
2022-12-14T06:04:18.836Z,14.75
2022-12-14T06:06:46.121Z,15.52
2022-12-14T06:09:16.001Z,14.18
2022-12-14T06:11:44.583Z,14.70
2022-12-14T06:14:13.371Z,15.15
2022-12-14T06:16:43.274Z,14.80
2022-12-14T06:19:11.543Z,14.57
2022-12-14T06:21:40.820Z,14.57
2022-12-14T06:24:09.851Z,14.82
2022-12-14T06:26:37.398Z,14.00
2022-12-14T06:29:04.843Z,13.95
2022-12-14T06:31:33.132Z,15.43
2022-12-14T06:34:03.046Z,14.75
2022-12-14T06:36:33.195Z,14.75
2022-12-14T06:39:04.742Z,14.43
2022-12-14T06:41:32.073Z,15.20
2022-12-14T06:44:08.221Z,15.65
2022-12-14T06:46:36.538Z,14.85
2022-12-14T06:49:05.832Z,13.93
2022-12-14T06:51:37.779Z,14.93
2022-12-14T06:54:04.795Z,15.75
2022-12-14T06:56:32.134Z,15.10
2022-12-14T06:58:59.466Z,15.35
2022-12-14T07:01:26.770Z,16.17
2022-12-14T07:03:56.528Z,15.55
2022-12-14T07:06:26.001Z,15.35
2022-12-14T07:08:55.872Z,14.77
2022-12-14T07:11:23.569Z,15.65
2022-12-14T07:13:50.586Z,15.07
2022-12-14T07:16:23.873Z,15.05
2022-12-14T07:18:52.301Z,13.82
2022-12-14T07:21:20.904Z,14.95
2022-12-14T07:23:49.196Z,15.23
2022-12-14T07:26:26.443Z,15.98
2022-12-14T07:28:55.106Z,14.48
2022-12-14T07:31:28.555Z,14.85
2022-12-14T07:33:58.301Z,14.05
2022-12-14T07:36:28.012Z,15.63
2022-12-14T07:38:56.099Z,16.55
2022-12-14T07:41:30.685Z,14.98
2022-12-14T07:44:00.655Z,15.47
2022-12-14T07:46:29.626Z,16.10
2022-12-14T07:48:59.054Z,16.02
2022-12-14T07:51:29.669Z,15.02
2022-12-14T07:53:57.254Z,15.63
2022-12-14T07:56:38.019Z,15.93
2022-12-14T07:59:08.588Z,15.57
2022-12-14T08:01:37.501Z,15.65
2022-12-14T08:04:11.892Z,16.65
2022-12-14T08:06:40.607Z,15.63
2022-12-14T08:09:10.563Z,15.68
2022-12-14T08:11:39.139Z,16.20
2022-12-14T08:14:18.753Z,16.70
2022-12-14T08:16:47.316Z,15.80
2022-12-14T08:19:15.011Z,15.18
2022-12-14T08:21:42.253Z,17.25
2022-12-14T08:24:12.215Z,15.18
2022-12-14T08:26:39.566Z,15.70
2022-12-14T08:29:06.753Z,17.25
2022-12-14T08:31:34.422Z,16.77
2022-12-14T08:34:02.185Z,17.42
2022-12-14T08:36:34.419Z,18.05
2022-12-14T08:39:07.912Z,16.25
2022-12-14T08:41:35.548Z,17.20
2022-12-14T08:44:04.642Z,16.80
2022-12-14T08:46:34.334Z,16.02
2022-12-14T08:49:01.562Z,16.42
2022-12-14T08:51:29.561Z,15.73
2022-12-14T08:53:57.341Z,16.02
2022-12-14T08:56:27.271Z,15.48
2022-12-14T08:58:54.636Z,15.30
2022-12-14T09:01:33.408Z,17.38
2022-12-14T09:04:08.268Z,14.90
2022-12-14T09:06:38.942Z,14.50
2022-12-14T09:09:13.608Z,14.13
2022-12-14T09:11:42.882Z,13.63
2022-12-14T09:14:10.912Z,13.43
2022-12-14T09:16:38.100Z,12.50
2022-12-14T09:19:05.387Z,13.73
2022-12-14T09:21:32.488Z,13.77
2022-12-14T09:24:00.166Z,13.65
2022-12-14T09:26:28.003Z,12.93
2022-12-14T09:28:58.100Z,11.77
2022-12-14T09:31:27.759Z,13.45
2022-12-14T09:33:55.358Z,12.02
2022-12-14T09:36:27.540Z,12.73
2022-12-14T09:38:56.528Z,12.32
2022-12-14T09:41:35.569Z,11.90
2022-12-14T09:44:18.857Z,12.57
2022-12-14T09:47:10.812Z,11.70
2022-12-14T09:49:44.929Z,11.30
2022-12-14T09:52:40.255Z,10.98
2022-12-14T09:55:34.957Z,12.20
2022-12-14T09:58:09.956Z,12.07
2022-12-14T10:00:52.909Z,12.35
2022-12-14T10:04:10.835Z,13.70
2022-12-14T10:07:11.657Z,11.93
2022-12-14T10:10:02.248Z,11.18
2022-12-14T10:13:20.774Z,12.75
2022-12-14T10:16:15.286Z,11.07
2022-12-14T10:19:07.252Z,12.68
2022-12-14T10:21:47.398Z,11.70
2022-12-14T10:24:22.479Z,11.85
2022-12-14T10:26:55.201Z,11.95
2022-12-14T10:29:37.261Z,11.82
2022-12-14T10:32:19.476Z,10.68
2022-12-14T10:34:46.671Z,10.30
2022-12-14T10:37:35.129Z,11.52
2022-12-14T10:40:33.156Z,11.48
2022-12-14T10:43:25.963Z,11.65
2022-12-14T10:46:10.133Z,11.38
2022-12-14T10:48:57.166Z,11.55
2022-12-14T10:51:47.887Z,12.00
2022-12-14T10:54:39.306Z,10.48
2022-12-14T10:57:06.457Z,11.30
2022-12-14T10:59:44.700Z,10.88
2022-12-14T11:02:23.135Z,11.20
2022-12-14T11:05:03.840Z,11.48
2022-12-14T11:07:33.841Z,10.60
2022-12-14T11:10:19.228Z,10.57
2022-12-14T11:13:05.490Z,11.52
2022-12-14T11:15:43.248Z,10.68
2022-12-14T11:18:16.557Z,11.75
2022-12-14T11:20:55.547Z,10.93
2022-12-14T11:23:27.672Z,11.40
2022-12-14T11:25:59.234Z,10.05
2022-12-14T11:28:49.960Z,11.00
2022-12-14T11:31:39.009Z,10.60
2022-12-14T11:34:22.131Z,9.98
2022-12-14T11:36:50.171Z,11.80
2022-12-14T11:39:24.666Z,10.68
2022-12-14T11:42:04.501Z,9.88
2022-12-14T11:44:37.661Z,9.77
2022-12-14T11:47:15.827Z,10.18
2022-12-14T11:49:45.915Z,10.10
2022-12-14T11:52:25.396Z,10.05
2022-12-14T11:54:52.377Z,9.95
2022-12-14T11:57:34.532Z,10.57
2022-12-14T12:00:06.948Z,8.77
2022-12-14T12:02:38.289Z,9.25
2022-12-14T12:05:14.758Z,9.23
2022-12-14T12:13:38.694Z,8.63
2022-12-14T12:16:22.867Z,9.90
2022-12-14T12:19:15.654Z,8.63
2022-12-14T12:21:45.191Z,9.95
2022-12-14T12:25:24.245Z,9.80
2022-12-14T12:27:45.216Z,9.38
2022-12-14T12:30:28.634Z,10.38
2022-12-14T12:33:05.469Z,10.98
2022-12-14T12:35:49.556Z,10.23
2022-12-14T12:38:55.202Z,10.73
2022-12-14T12:42:05.196Z,10.38
2022-12-14T12:44:49.548Z,9.88
2022-12-14T12:47:41.553Z,10.02
2022-12-14T12:50:37.047Z,8.82
2022-12-14T12:53:15.065Z,10.00
2022-12-14T12:55:50.174Z,9.93
2022-12-14T12:58:29.297Z,9.15
2022-12-14T13:01:02.073Z,9.40
2022-12-14T13:03:40.184Z,9.70
2022-12-14T13:06:31.428Z,10.40
2022-12-14T13:09:17.819Z,9.80
2022-12-14T13:11:46.039Z,9.95
2022-12-14T13:14:36.076Z,10.65
2022-12-14T13:17:06.709Z,10.63
2022-12-14T13:19:52.080Z,9.55
2022-12-14T13:22:31.274Z,10.48
2022-12-14T13:25:06.486Z,9.25
2022-12-14T13:27:58.372Z,10.10
2022-12-14T13:30:42.707Z,9.55
2022-12-14T13:33:53.710Z,9.13
2022-12-14T13:36:55.231Z,10.45
2022-12-14T13:39:50.575Z,11.27
2022-12-14T13:42:51.914Z,11.63
2022-12-14T13:45:27.470Z,11.35
2022-12-14T13:47:57.157Z,12.77
2022-12-14T13:50:51.245Z,11.45
2022-12-14T13:53:37.271Z,10.95
2022-12-14T13:56:05.186Z,11.35
2022-12-14T13:58:44.940Z,11.77
2022-12-14T14:01:48.406Z,12.75
2022-12-14T14:04:25.808Z,12.40
2022-12-14T14:06:56.635Z,12.30
2022-12-14T14:09:26.571Z,12.63
2022-12-14T14:12:24.192Z,12.18
2022-12-14T14:15:08.233Z,19.60
2022-12-14T14:17:41.576Z,15.55
2022-12-14T14:20:47.397Z,14.50
2022-12-14T14:23:14.291Z,12.80
2022-12-14T14:25:49.847Z,12.75
2022-12-14T14:28:22.980Z,13.20
2022-12-14T14:30:52.484Z,13.88
2022-12-14T14:33:46.521Z,14.63
2022-12-14T14:36:30.871Z,14.05
2022-12-14T14:39:01.604Z,13.00
2022-12-14T14:41:40.693Z,14.32
2022-12-14T14:45:00.012Z,15.40
2022-12-14T14:47:39.529Z,14.32
2022-12-14T14:50:24.670Z,14.52
2022-12-14T14:53:32.851Z,14.73
2022-12-14T14:56:29.252Z,15.52
2022-12-14T14:59:18.093Z,16.02
2022-12-14T15:01:58.125Z,15.13
2022-12-14T15:04:51.627Z,16.20
2022-12-14T15:07:27.746Z,16.80
2022-12-14T15:10:20.720Z,15.68
2022-12-14T15:13:01.939Z,17.27
2022-12-14T15:15:40.394Z,16.48
2022-12-14T15:18:31.557Z,16.73
2022-12-14T15:21:16.132Z,16.77
2022-12-14T15:23:50.528Z,17.65
2022-12-14T15:26:27.372Z,22.35
2022-12-14T15:29:00.551Z,23.45
2022-12-14T15:31:40.366Z,24.65
2022-12-14T15:34:15.417Z,27.23
2022-12-14T15:36:43.154Z,25.38
2022-12-14T15:39:40.008Z,24.58
2022-12-14T15:44:43.699Z,20.08
2022-12-14T15:47:27.855Z,21.73
2022-12-14T15:50:00.464Z,20.00
2022-12-14T15:52:31.158Z,19.98
2022-12-14T15:54:59.485Z,20.48
2022-12-14T15:57:26.740Z,21.17
2022-12-14T15:59:57.427Z,20.90
2022-12-14T16:02:38.198Z,21.77
2022-12-14T16:05:06.438Z,21.85
2022-12-14T16:07:39.362Z,22.77
2022-12-14T16:10:32.965Z,24.33
2022-12-14T16:13:33.469Z,22.63
2022-12-14T16:16:11.736Z,23.80
2022-12-14T16:18:50.785Z,24.85
2022-12-14T16:21:35.292Z,25.67
2022-12-14T16:24:24.228Z,25.17
2022-12-14T16:27:00.723Z,24.67
2022-12-14T16:29:33.665Z,23.13
2022-12-14T16:32:07.109Z,24.13
2022-12-14T16:34:34.523Z,22.23
2022-12-14T16:37:34.740Z,23.23
2022-12-14T16:39:52.476Z,24.02
2022-12-14T16:42:25.842Z,23.27
2022-12-14T16:44:54.404Z,23.50
2022-12-14T16:47:21.530Z,21.45
2022-12-14T16:49:51.959Z,24.65
2022-12-14T16:52:35.506Z,24.25
2022-12-14T16:55:18.604Z,23.45
2022-12-14T16:57:48.626Z,24.02
2022-12-14T17:00:36.170Z,23.33
2022-12-14T17:03:09.124Z,22.88
2022-12-14T17:05:40.369Z,23.42
2022-12-14T17:08:08.626Z,22.42
2022-12-14T17:10:37.408Z,23.02
2022-12-14T17:13:04.521Z,24.52
2022-12-14T17:15:34.449Z,22.33
2022-12-14T17:18:04.713Z,24.65
2022-12-14T17:20:39.566Z,22.77
2022-12-14T17:23:10.299Z,23.45
2022-12-14T17:25:37.353Z,24.83
2022-12-14T17:28:21.707Z,23.88
2022-12-14T17:30:50.521Z,25.20
2022-12-14T17:33:17.875Z,24.08
2022-12-14T17:35:44.916Z,24.60
2022-12-14T17:38:16.516Z,26.25
2022-12-14T17:40:45.628Z,24.73
2022-12-14T17:43:21.005Z,24.75
2022-12-14T17:45:48.332Z,25.02
2022-12-14T17:48:17.436Z,25.48
2022-12-14T17:50:48.411Z,25.85
2022-12-14T17:53:26.416Z,26.10
2022-12-14T17:55:53.532Z,27.42
2022-12-14T17:58:20.472Z,29.52
2022-12-14T18:01:03.656Z,30.17
2022-12-14T18:03:36.521Z,30.77
2022-12-14T18:06:04.726Z,31.20
2022-12-14T18:08:31.903Z,30.35
2022-12-14T18:11:02.986Z,30.25
2022-12-14T18:13:33.141Z,29.45
2022-12-14T18:16:00.995Z,31.15
2022-12-14T18:18:29.394Z,29.23
2022-12-14T18:21:02.684Z,32.55
2022-12-14T18:23:31.909Z,31.00
2022-12-14T18:26:00.663Z,33.58
2022-12-14T18:28:27.643Z,34.58
2022-12-14T18:31:01.745Z,32.33
2022-12-14T18:33:29.670Z,31.17
2022-12-14T18:35:57.541Z,32.53
2022-12-14T18:38:25.863Z,33.47
2022-12-14T18:40:56.227Z,32.13
2022-12-14T18:43:28.484Z,33.58
2022-12-14T18:45:56.716Z,35.85
2022-12-14T18:48:25.194Z,35.83
2022-12-14T18:50:54.604Z,34.53
2022-12-14T18:53:24.413Z,33.30
2022-12-14T18:55:52.612Z,36.20
2022-12-14T18:58:24.425Z,34.25
2022-12-14T19:00:55.211Z,36.15
2022-12-14T19:03:24.182Z,35.70
2022-12-14T19:05:51.655Z,35.97
2022-12-14T19:08:19.683Z,35.78
2022-12-14T19:10:48.577Z,37.30
2022-12-14T19:13:25.733Z,36.30
2022-12-14T19:15:54.200Z,35.08
2022-12-14T19:18:21.614Z,37.47
2022-12-14T19:20:49.463Z,38.00
2022-12-14T19:23:19.865Z,37.53
2022-12-14T19:25:47.536Z,37.83
2022-12-14T19:28:31.283Z,37.47
2022-12-14T19:31:00.426Z,37.58
2022-12-14T19:33:28.625Z,38.22
2022-12-14T19:35:56.206Z,36.83
2022-12-14T19:38:23.165Z,38.03
2022-12-14T19:41:05.105Z,36.33
2022-12-14T19:43:32.727Z,35.22
2022-12-14T19:46:00.226Z,36.63
2022-12-14T19:48:27.247Z,36.90
2022-12-14T19:50:54.293Z,37.42
2022-12-14T19:53:23.703Z,39.33
2022-12-14T19:55:53.997Z,40.67
2022-12-14T19:58:25.499Z,36.10
2022-12-14T20:00:52.766Z,35.45
2022-12-14T20:03:20.047Z,35.22
2022-12-14T20:05:59.318Z,36.42
2022-12-14T20:08:29.398Z,35.38
2022-12-14T20:10:57.511Z,34.85
2022-12-14T20:13:26.661Z,34.33
2022-12-14T20:15:59.660Z,34.50
2022-12-14T20:18:28.430Z,38.00
2022-12-14T20:21:08.072Z,36.15
2022-12-14T20:23:37.317Z,36.95
2022-12-14T20:26:12.963Z,36.13
2022-12-14T20:28:40.869Z,38.67
2022-12-14T20:31:10.172Z,38.83
2022-12-14T20:33:38.389Z,37.80
2022-12-14T20:36:06.573Z,37.13
2022-12-14T20:38:34.065Z,39.38
2022-12-14T20:41:10.592Z,39.20
2022-12-14T20:43:40.502Z,40.42
2022-12-14T20:46:30.772Z,39.40
2022-12-14T20:49:01.446Z,39.15
2022-12-14T20:51:30.495Z,41.28
2022-12-14T20:53:57.943Z,41.25
2022-12-14T20:56:25.457Z,42.58
2022-12-14T20:58:52.723Z,39.42
2022-12-14T21:01:21.594Z,41.55
2022-12-14T21:03:50.252Z,38.25
2022-12-14T21:06:22.605Z,39.08
2022-12-14T21:09:04.994Z,38.63
2022-12-14T21:12:02.400Z,37.47
2022-12-14T21:14:36.250Z,35.10
2022-12-14T21:17:04.021Z,38.13
2022-12-14T21:19:32.919Z,37.53
2022-12-14T21:21:59.929Z,36.75
2022-12-14T21:27:23.783Z,37.63
2022-12-14T21:29:52.288Z,37.22
2022-12-14T21:32:20.756Z,38.17
2022-12-14T21:34:48.416Z,37.22
2022-12-14T21:37:15.983Z,37.35
2022-12-14T21:39:47.590Z,36.42
2022-12-14T21:42:20.964Z,39.22
2022-12-14T21:44:50.739Z,36.58
2022-12-14T21:47:29.451Z,38.10
2022-12-14T21:49:57.313Z,37.72
2022-12-14T21:52:27.093Z,39.03
2022-12-14T21:54:54.490Z,38.60
2022-12-14T21:57:49.484Z,38.35
2022-12-14T22:00:19.167Z,38.33
2022-12-14T22:02:46.333Z,38.90
2022-12-14T22:05:13.401Z,37.10
2022-12-14T22:07:40.520Z,39.40
2022-12-14T22:10:07.825Z,39.83
2022-12-14T22:12:34.894Z,45.58
2022-12-14T22:15:02.044Z,41.78
2022-12-14T22:17:28.949Z,42.90
2022-12-14T22:19:56.169Z,43.42
2022-12-14T22:22:23.361Z,43.92
2022-12-14T22:24:51.231Z,43.63
2022-12-14T22:27:19.916Z,41.38
2022-12-14T22:29:47.418Z,42.35
2022-12-14T22:32:15.999Z,43.00
2022-12-14T22:34:43.275Z,42.95
2022-12-14T22:37:13.557Z,44.38
2022-12-14T22:39:40.713Z,44.05
2022-12-14T22:42:07.677Z,45.17
2022-12-14T22:44:34.837Z,43.35
2022-12-14T22:47:02.247Z,43.05
2022-12-14T22:49:29.262Z,42.58
2022-12-14T22:51:56.494Z,46.03
2022-12-14T22:54:27.716Z,45.72
2022-12-14T22:57:05.133Z,45.33
2022-12-14T22:59:45.174Z,45.75
2022-12-14T23:02:12.840Z,47.20
2022-12-14T23:04:40.168Z,45.85
2022-12-14T23:07:07.295Z,47.00
2022-12-14T23:09:53.152Z,46.17
2022-12-14T23:12:38.881Z,42.45
2022-12-14T23:15:24.765Z,43.90
2022-12-14T23:21:18.257Z,42.83
2022-12-14T23:24:04.767Z,42.42
2022-12-14T23:26:51.647Z,44.20
2022-12-14T23:29:37.581Z,43.50
2022-12-14T23:32:23.548Z,43.15
2022-12-14T23:35:09.095Z,44.92
2022-12-14T23:37:55.026Z,42.43
2022-12-14T23:40:40.377Z,44.08
2022-12-14T23:43:36.609Z,42.40
2022-12-14T23:46:24.459Z,43.03
2022-12-14T23:49:15.350Z,42.92
2022-12-14T23:52:02.011Z,41.00
2022-12-14T23:54:47.940Z,44.95
2022-12-14T23:57:34.069Z,43.47
